Cap-des-Rosiers, Canada
Current Conditions -  °F | °C
As of 10:07 AM on Thursday 18 Dec 2014 (Local Time) from CYGP Reporting Station
Moderate Snow Moderate Snow  
Wind Chill: 23°   Ceiling: 400
Heat Index: 30°   Visibility: 0.37mi
Dew Point: 28°   Wind: 8mph
Humidity: 93%   Direction: 60°ENE
Pressure: 29.64"   Gusts: NA
Location:  48.86°N, 64.23°W
Report Text: CYGP 181507Z 06007KT 020V110 3/8SM SN VV004 M01/M02 A2964 RMK SN8 SLP039
Loading
Personal Weather Stations






























Interactive Weather Map New forecast layout! Learn more

10-Day Weather Forecast

Advertisements
Track Severe Weather on mobile